Time;durP1;ratioP1;P1;durP2;ratioP2;P2;SDS_P1;SDS_P2;PMS_P1;PMS_P2;Temp;Humidity;BMP_temperature;BMP_pressure;BME280_temperature;BME280_humidity;BME280_pressure;Samples;Min_cycle;Max_cycle;Signal;HPM_P1;HPM_P2
2021/12/10 00:01:39;;;;;;;48.15;28.23;;;4.90;99.90;;;;;;5016862;28;20057;-68
2021/12/10 00:04:06;;;;;;;60.80;28.83;;;4.90;99.90;;;;;;5011097;28;20409;-68
2021/12/10 00:06:55;;;;;;;49.55;28.23;;;4.90;99.90;;;;;;5011874;28;20061;-68
2021/12/10 00:09:32;;;;;;;57.90;26.88;;;4.90;99.90;;;;;;5010657;28;20140;-67
2021/12/10 00:12:06;;;;;;;46.92;26.98;;;4.90;99.90;;;;;;5010506;28;20046;-67
2021/12/10 00:14:35;;;;;;;48.63;26.63;;;4.90;99.90;;;;;;5023814;28;20128;-68
2021/12/10 00:17:03;;;;;;;46.53;23.23;;;4.90;99.90;;;;;;5008956;28;20072;-67
2021/12/10 00:19:36;;;;;;;42.92;24.63;;;4.90;99.90;;;;;;5029357;28;20038;-67
2021/12/10 00:22:09;;;;;;;47.83;23.55;;;4.90;99.90;;;;;;5030699;28;20064;-67
2021/12/10 00:24:36;;;;;;;39.10;23.13;;;4.90;99.90;;;;;;5029240;28;20053;-67
2021/12/10 00:27:05;;;;;;;39.85;21.60;;;4.90;99.90;;;;;;5030787;28;20083;-68
2021/12/10 00:29:33;;;;;;;41.53;21.95;;;4.90;99.90;;;;;;5030668;28;20255;-68
2021/12/10 00:32:04;;;;;;;39.92;22.83;;;4.90;99.90;;;;;;5028004;28;20061;-67
2021/12/10 00:34:29;;;;;;;36.53;20.80;;;4.90;99.90;;;;;;5008107;28;20116;-67
2021/12/10 00:37:01;;;;;;;32.73;20.50;;;4.90;99.90;;;;;;5030583;28;20050;-67
2021/12/10 00:39:31;;;;;;;39.28;22.13;;;4.90;99.90;;;;;;5030151;28;20045;-67
2021/12/10 00:41:59;;;;;;;40.25;21.08;;;4.90;99.90;;;;;;5030774;28;20049;-67
2021/12/10 00:44:25;;;;;;;35.15;19.88;;;4.90;99.90;;;;;;5028694;28;20041;-67
2021/12/10 00:46:51;;;;;;;40.28;22.85;;;4.90;99.90;;;;;;5030653;28;20052;-67
2021/12/10 00:49:17;;;;;;;40.28;21.63;;;4.90;99.90;;;;;;5029134;28;20528;-68
2021/12/10 00:51:43;;;;;;;43.88;22.23;;;4.90;99.90;;;;;;5030589;28;20437;-67
2021/12/10 00:54:10;;;;;;;40.10;23.20;;;4.90;99.90;;;;;;5030247;28;20123;-68
2021/12/10 00:56:37;;;;;;;43.13;22.90;;;4.90;99.90;;;;;;5030947;28;20095;-67
2021/12/10 00:59:03;;;;;;;34.58;19.85;;;4.90;99.90;;;;;;5029766;28;20559;-68
2021/12/10 01:01:32;;;;;;;32.22;18.60;;;4.90;99.90;;;;;;5030826;28;20104;-67
2021/12/10 01:04:18;;;;;;;34.38;19.00;;;4.90;99.90;;;;;;5029331;28;20373;-68
2021/12/10 01:06:47;;;;;;;32.92;18.75;;;4.90;99.90;;;;;;5020181;28;20049;-68
2021/12/10 01:09:19;;;;;;;36.80;19.30;;;4.90;99.90;;;;;;5029661;28;20059;-68
2021/12/10 01:11:50;;;;;;;31.58;17.63;;;4.90;99.90;;;;;;5030494;28;20050;-68
2021/12/10 01:14:26;;;;;;;32.88;18.67;;;4.90;99.90;;;;;;5028322;28;20034;-67
2021/12/10 01:25:31;;;;;;;31.95;17.08;;;4.80;99.90;;;;;;5027872;28;20065;-67
2021/12/10 01:27:57;;;;;;;29.20;16.15;;;4.80;99.90;;;;;;5028384;28;20428;-67
2021/12/10 01:30:27;;;;;;;27.50;16.73;;;4.80;99.90;;;;;;5028563;28;20037;-68
2021/12/10 01:32:57;;;;;;;27.98;16.35;;;4.80;99.90;;;;;;5028892;28;20057;-68
2021/12/10 01:35:34;;;;;;;28.15;15.25;;;4.80;99.90;;;;;;5029541;28;20045;-67
2021/12/10 01:38:02;;;;;;;30.90;16.33;;;4.80;99.90;;;;;;5027195;28;20053;-67
2021/12/10 01:40:29;;;;;;;30.52;14.68;;;4.80;99.90;;;;;;5028511;28;20050;-67
2021/12/10 01:43:01;;;;;;;;;;;4.80;99.90;;;;;;5030410;28;20553;-67
2021/12/10 01:45:32;;;;;;;22.88;14.55;;;4.70;99.90;;;;;;5011740;28;20445;-67
2021/12/10 01:48:05;;;;;;;33.88;15.98;;;4.70;99.90;;;;;;5029769;28;20092;-67
2021/12/10 01:50:32;;;;;;;26.25;15.52;;;4.70;99.90;;;;;;5029621;28;20052;-67
2021/12/10 01:53:03;;;;;;;31.05;15.00;;;4.70;99.90;;;;;;5029136;28;20057;-67
2021/12/10 01:55:32;;;;;;;30.77;16.33;;;4.70;99.90;;;;;;5029677;28;20369;-68
2021/12/10 01:57:58;;;;;;;32.67;15.85;;;4.70;99.90;;;;;;5028979;28;20404;-67
2021/12/10 02:00:31;;;;;;;32.58;15.27;;;4.70;99.90;;;;;;5029941;28;20080;-67
2021/12/10 02:02:57;;;;;;;26.88;14.77;;;4.70;99.90;;;;;;5032129;28;20045;-68
2021/12/10 02:05:23;;;;;;;30.20;15.38;;;4.70;99.90;;;;;;5032018;28;20033;-67
2021/12/10 02:07:49;;;;;;;29.35;15.77;;;4.70;99.90;;;;;;5031536;28;20053;-68
2021/12/10 02:10:19;;;;;;;25.88;14.20;;;4.70;99.90;;;;;;5033561;28;20045;-68
2021/12/10 02:12:45;;;;;;;27.65;13.80;;;4.70;99.90;;;;;;5031992;28;20435;-67
2021/12/10 02:15:12;;;;;;;29.83;15.02;;;4.70;99.90;;;;;;5033068;28;20053;-68
2021/12/10 02:17:44;;;;;;;30.58;15.20;;;4.70;99.90;;;;;;5010217;28;20052;-68
2021/12/10 02:20:21;;;;;;;36.17;16.92;;;4.70;99.90;;;;;;5031758;28;20045;-68
2021/12/10 02:22:48;;;;;;;27.13;14.85;;;4.70;99.90;;;;;;5033353;28;20041;-67
2021/12/10 02:25:17;;;;;;;28.08;14.32;;;4.60;99.90;;;;;;5031372;28;20048;-67
2021/12/10 02:27:42;;;;;;;33.47;14.82;;;4.60;99.90;;;;;;5033444;28;20041;-67
2021/12/10 02:30:11;;;;;;;27.93;15.97;;;4.60;99.90;;;;;;5032139;28;20045;-68
2021/12/10 02:32:37;;;;;;;29.17;15.95;;;4.60;99.90;;;;;;5024494;28;20053;-67
2021/12/10 02:35:05;;;;;;;29.47;15.53;;;4.60;99.90;;;;;;5027327;28;20045;-67
2021/12/10 02:37:31;;;;;;;32.17;16.92;;;4.60;99.90;;;;;;5030519;28;20375;-67
2021/12/10 02:39:57;;;;;;;35.87;17.63;;;4.60;99.90;;;;;;5030682;28;20191;-68
2021/12/10 02:42:22;;;;;;;40.47;17.37;;;4.60;99.90;;;;;;5032687;28;20291;-67
2021/12/10 02:44:48;;;;;;;42.23;17.50;;;4.60;99.90;;;;;;5032080;28;20408;-67
2021/12/10 02:47:16;;;;;;;39.30;20.48;;;4.60;99.90;;;;;;5031445;28;20041;-67
2021/12/10 02:49:42;;;;;;;44.13;20.15;;;4.60;99.90;;;;;;5030966;28;20048;-67
2021/12/10 02:52:10;;;;;;;39.33;19.30;;;4.60;99.90;;;;;;5032509;28;20049;-67
2021/12/10 02:54:36;;;;;;;29.30;19.23;;;4.60;99.90;;;;;;5030392;28;20064;-67
2021/12/10 02:57:10;;;;;;;37.60;20.58;;;4.50;99.90;;;;;;5019305;28;20492;-68
2021/12/10 02:59:37;;;;;;;44.55;22.15;;;4.50;99.90;;;;;;5016212;28;20091;-67
2021/12/10 03:02:03;;;;;;;;;;;4.40;99.90;;;;;;5014753;28;20103;-67
2021/12/10 03:04:31;;;;;;;41.78;20.70;;;4.40;99.90;;;;;;5024367;28;19925;-67
2021/12/10 03:06:59;;;;;;;35.30;22.17;;;4.40;99.90;;;;;;5032154;28;20045;-68
2021/12/10 03:09:28;;;;;;;39.20;21.30;;;4.30;99.90;;;;;;5030962;28;20511;-67
2021/12/10 03:11:56;;;;;;;39.58;22.75;;;4.30;99.90;;;;;;5029204;28;20300;-67
2021/12/10 03:14:29;;;;;;;37.40;20.85;;;4.30;99.90;;;;;;5030499;28;20060;-68
2021/12/10 03:16:57;;;;;;;41.25;21.33;;;4.30;99.90;;;;;;5031753;28;20045;-67
2021/12/10 03:19:23;;;;;;;33.95;20.30;;;4.30;99.90;;;;;;5030256;28;20056;-67
2021/12/10 03:21:51;;;;;;;33.33;21.88;;;4.30;99.90;;;;;;5030268;28;20033;-67
2021/12/10 03:24:19;;;;;;;38.88;21.10;;;4.30;99.90;;;;;;5030214;28;20049;-67
2021/12/10 03:26:45;;;;;;;38.45;23.20;;;4.30;99.90;;;;;;5031182;28;20041;-67
2021/12/10 03:29:11;;;;;;;25.75;17.63;;;4.30;99.90;;;;;;5031133;28;20049;-67
2021/12/10 03:31:37;;;;;;;30.77;19.83;;;4.30;99.90;;;;;;5032003;28;20045;-67
2021/12/10 03:34:04;;;;;;;34.53;21.00;;;4.30;99.90;;;;;;5030445;28;20361;-67
2021/12/10 03:36:30;;;;;;;31.20;20.13;;;4.30;99.90;;;;;;5032059;28;20072;-67
2021/12/10 03:38:56;;;;;;;34.70;18.95;;;4.30;99.90;;;;;;5031313;28;20068;-68
2021/12/10 03:41:22;;;;;;;35.42;17.98;;;4.30;99.90;;;;;;5032039;28;20042;-67
2021/12/10 03:43:49;;;;;;;31.92;18.90;;;4.20;99.90;;;;;;5031132;28;20041;-67
2021/12/10 03:46:16;;;;;;;27.83;18.40;;;4.20;99.90;;;;;;5032144;28;20235;-67
2021/12/10 03:48:45;;;;;;;27.95;19.55;;;4.20;99.90;;;;;;5030874;28;20038;-67
2021/12/10 03:51:18;;;;;;;28.13;18.25;;;4.20;99.90;;;;;;5031313;28;20040;-68
2021/12/10 03:53:44;;;;;;;30.98;17.98;;;4.10;99.90;;;;;;5030998;28;20638;-67
2021/12/10 03:56:13;;;;;;;28.83;18.58;;;4.10;99.90;;;;;;5022330;28;20090;-67
2021/12/10 03:58:39;;;;;;;26.92;18.52;;;4.10;99.90;;;;;;5030920;28;20057;-67
2021/12/10 04:01:06;;;;;;;28.67;19.90;;;4.00;99.90;;;;;;5029933;28;20045;-67
2021/12/10 04:03:33;;;;;;;31.30;20.50;;;3.90;99.90;;;;;;5030748;28;20045;-67
2021/12/10 04:06:00;;;;;;;29.98;18.88;;;3.80;99.90;;;;;;5031015;28;20037;-67
2021/12/10 04:08:27;;;;;;;35.05;20.50;;;3.70;99.90;;;;;;5029308;28;20048;-67
2021/12/10 04:10:54;;;;;;;30.27;19.95;;;3.60;99.90;;;;;;5030834;28;20045;-67
2021/12/10 04:13:21;;;;;;;29.63;17.48;;;3.60;99.90;;;;;;5011768;28;20088;-67
2021/12/10 04:15:47;;;;;;;31.42;19.75;;;3.50;99.90;;;;;;5029555;28;20045;-67
2021/12/10 04:18:14;;;;;;;35.15;21.48;;;3.40;99.90;;;;;;5030317;28;20142;-68
2021/12/10 04:20:40;;;;;;;35.08;20.38;;;3.40;99.90;;;;;;5029555;28;20124;-67
2021/12/10 04:23:09;;;;;;;;;;;3.30;99.90;;;;;;5030644;28;20049;-67
2021/12/10 04:25:36;;;;;;;27.52;19.30;;;3.30;99.90;;;;;;5029190;28;19928;-66
2021/12/10 04:28:03;;;;;;;;;;;3.30;99.90;;;;;;5022611;28;20049;-67
2021/12/10 04:30:35;;;;;;;30.30;20.30;;;3.30;99.90;;;;;;5031012;28;19921;-67
2021/12/10 04:33:03;;;;;;;32.45;20.98;;;3.20;99.90;;;;;;5030125;28;20493;-67
2021/12/10 04:35:29;;;;;;;31.73;21.42;;;3.20;99.90;;;;;;5030701;28;20045;-67
2021/12/10 04:37:54;;;;;;;37.95;23.17;;;3.10;99.90;;;;;;5030039;28;20514;-67
2021/12/10 04:40:22;;;;;;;35.53;23.40;;;3.10;99.90;;;;;;5029635;28;20042;-67
2021/12/10 04:42:48;;;;;;;31.90;20.73;;;3.10;99.90;;;;;;5030100;28;20152;-67
2021/12/10 04:45:16;;;;;;;35.15;22.33;;;3.00;99.90;;;;;;5030274;28;20045;-67
2021/12/10 04:47:42;;;;;;;33.55;21.45;;;3.10;99.90;;;;;;5030268;28;20052;-68
2021/12/10 04:50:08;;;;;;;;;;;3.00;99.90;;;;;;5031069;28;20041;-67
2021/12/10 04:52:34;;;;;;;30.88;20.73;;;3.00;99.90;;;;;;5029299;28;19944;-67
2021/12/10 04:55:02;;;;;;;33.25;21.35;;;2.90;99.90;;;;;;5027651;28;20048;-67
2021/12/10 04:57:27;;;;;;;31.98;20.65;;;2.90;99.90;;;;;;5025574;28;20578;-67
2021/12/10 04:59:53;;;;;;;28.07;18.43;;;2.90;99.90;;;;;;5029983;28;20030;-67
2021/12/10 05:02:19;;;;;;;28.27;19.27;;;2.80;99.90;;;;;;5029606;28;20363;-67
2021/12/10 05:04:46;;;;;;;29.15;19.48;;;2.80;99.90;;;;;;5028472;28;20658;-68
2021/12/10 05:07:16;;;;;;;30.00;20.00;;;2.70;99.90;;;;;;5030632;28;20103;-68
2021/12/10 05:09:42;;;;;;;31.67;18.73;;;2.70;99.90;;;;;;5029655;28;20095;-67
2021/12/10 05:12:08;;;;;;;25.08;18.40;;;2.70;99.90;;;;;;5028689;28;20045;-68
2021/12/10 05:14:35;;;;;;;25.52;18.52;;;2.60;99.90;;;;;;5029690;28;20112;-68
2021/12/10 05:17:05;;;;;;;27.02;18.77;;;2.60;99.90;;;;;;5030067;28;20116;-67
2021/12/10 05:19:31;;;;;;;26.58;17.23;;;2.60;99.90;;;;;;5029956;28;20487;-67
2021/12/10 05:22:00;;;;;;;28.13;18.60;;;2.60;99.90;;;;;;5029819;28;20041;-67
2021/12/10 05:24:27;;;;;;;25.38;16.75;;;2.50;99.90;;;;;;5029402;28;20053;-67
2021/12/10 05:26:54;;;;;;;31.40;18.25;;;2.50;99.90;;;;;;5029889;28;20409;-68
2021/12/10 05:29:19;;;;;;;26.50;16.90;;;2.50;99.90;;;;;;4987881;28;20116;-68
2021/12/10 05:31:46;;;;;;;24.40;15.60;;;2.50;99.90;;;;;;5029723;28;20041;-68
2021/12/10 05:34:13;;;;;;;25.80;17.88;;;2.40;99.90;;;;;;5029574;28;20045;-68
2021/12/10 05:36:39;;;;;;;26.65;16.92;;;2.40;99.90;;;;;;5033384;28;20049;-68
2021/12/10 05:39:07;;;;;;;25.95;16.92;;;2.40;99.90;;;;;;5033303;28;20061;-68
2021/12/10 05:41:32;;;;;;;23.38;16.38;;;2.40;99.90;;;;;;5032617;28;20144;-68
2021/12/10 05:43:58;;;;;;;28.10;16.77;;;2.40;99.90;;;;;;5031860;28;20092;-68
2021/12/10 05:46:24;;;;;;;26.47;17.73;;;2.40;99.90;;;;;;5032676;28;20295;-68
2021/12/10 05:48:50;;;;;;;27.50;16.90;;;2.40;99.90;;;;;;5033034;28;20045;-68
2021/12/10 05:51:16;;;;;;;24.10;15.70;;;2.40;99.90;;;;;;5032598;28;20132;-68
2021/12/10 05:53:42;;;;;;;27.77;15.65;;;2.30;99.90;;;;;;5031686;28;20407;-68
2021/12/10 05:56:08;;;;;;;24.10;14.30;;;2.30;99.90;;;;;;5025219;28;20033;-68
2021/12/10 05:58:34;;;;;;;;;;;2.20;99.90;;;;;;5031872;28;20041;-68
2021/12/10 06:01:05;;;;;;;24.23;16.23;;;2.20;99.90;;;;;;5033648;28;20019;-68
2021/12/10 06:03:32;;;;;;;25.17;16.42;;;2.20;99.90;;;;;;5032292;28;20045;-68
2021/12/10 06:05:59;;;;;;;28.50;16.40;;;2.20;99.90;;;;;;5032296;28;20133;-68
2021/12/10 06:08:24;;;;;;;;;;;2.10;99.90;;;;;;5033407;28;20033;-68
2021/12/10 06:10:53;;;;;;;21.83;13.80;;;2.10;99.90;;;;;;5033386;28;19921;-68
2021/12/10 06:13:19;;;;;;;23.33;14.73;;;2.10;99.90;;;;;;5033493;28;20071;-68
2021/12/10 06:15:44;;;;;;;24.63;15.20;;;2.00;99.90;;;;;;5031604;28;20492;-68
2021/12/10 06:18:11;;;;;;;24.53;15.23;;;2.00;99.90;;;;;;5033272;28;20049;-68
2021/12/10 06:20:42;;;;;;;30.05;15.25;;;1.90;99.90;;;;;;5032173;28;20045;-68
2021/12/10 06:23:08;;;;;;;22.52;14.48;;;1.90;99.90;;;;;;5028670;28;20041;-68
2021/12/10 06:25:35;;;;;;;22.35;14.18;;;1.90;99.90;;;;;;5015839;28;20074;-68
2021/12/10 06:28:02;;;;;;;24.17;13.93;;;1.90;99.90;;;;;;5029891;28;20060;-68
2021/12/10 06:30:31;;;;;;;31.92;15.13;;;1.80;99.90;;;;;;5029614;28;20045;-68
2021/12/10 06:32:59;;;;;;;27.40;14.95;;;1.90;99.90;;;;;;5033326;28;20124;-68
2021/12/10 06:35:26;;;;;;;20.98;13.20;;;1.80;99.90;;;;;;5032254;28;20087;-68
2021/12/10 06:37:53;;;;;;;25.52;14.57;;;1.80;99.90;;;;;;5032520;28;20468;-68
2021/12/10 06:40:23;;;;;;;29.55;15.15;;;1.80;99.90;;;;;;5033065;28;20618;-68
2021/12/10 06:42:49;;;;;;;19.85;14.05;;;1.80;99.90;;;;;;5019830;28;20060;-68
2021/12/10 06:45:17;;;;;;;24.38;15.63;;;1.90;99.90;;;;;;5032371;28;20124;-68
2021/12/10 06:47:48;;;;;;;24.58;14.35;;;1.80;99.90;;;;;;5031622;28;20121;-68
2021/12/10 06:50:19;;;;;;;20.02;13.65;;;1.80;99.90;;;;;;5032663;28;20497;-68
2021/12/10 06:52:45;;;;;;;22.55;14.40;;;1.80;99.90;;;;;;5031022;28;20132;-68
2021/12/10 06:55:11;;;;;;;24.35;13.95;;;1.80;99.90;;;;;;5032331;28;20500;-68
2021/12/10 06:57:38;;;;;;;20.02;13.27;;;1.80;99.90;;;;;;5032305;28;20045;-68
2021/12/10 07:00:22;;;;;;;19.25;13.15;;;1.80;99.90;;;;;;5031983;28;20060;-68
2021/12/10 07:02:48;;;;;;;20.50;13.15;;;1.80;99.90;;;;;;5032151;28;20129;-68
2021/12/10 07:05:14;;;;;;;20.42;12.88;;;1.80;99.90;;;;;;5031708;28;20120;-68
2021/12/10 07:07:40;;;;;;;21.80;12.25;;;1.70;99.90;;;;;;5032178;28;20124;-68
2021/12/10 07:10:08;;;;;;;19.83;13.55;;;1.70;99.90;;;;;;5030527;28;20054;-68
2021/12/10 07:12:39;;;;;;;17.75;11.43;;;1.70;99.90;;;;;;5031778;28;20045;-68
2021/12/10 07:15:09;;;;;;;17.20;12.23;;;1.70;99.90;;;;;;5030769;28;20045;-68
2021/12/10 07:17:37;;;;;;;19.75;12.35;;;1.70;99.90;;;;;;5028949;28;20397;-68
2021/12/10 07:20:04;;;;;;;19.27;12.10;;;1.70;99.90;;;;;;5023069;28;20048;-68
2021/12/10 07:22:29;;;;;;;20.67;12.15;;;1.70;99.90;;;;;;5025262;28;20124;-68
2021/12/10 07:24:55;;;;;;;21.90;12.07;;;1.70;99.90;;;;;;5031430;28;20132;-68
2021/12/10 07:27:21;;;;;;;19.53;11.00;;;1.60;99.90;;;;;;5030789;28;20069;-68
2021/12/10 07:29:47;;;;;;;17.77;11.03;;;1.60;99.90;;;;;;5030841;28;20038;-68
2021/12/10 07:32:13;;;;;;;;;;;1.60;99.90;;;;;;5029067;28;20726;-68
2021/12/10 07:34:38;;;;;;;17.40;11.18;;;1.60;99.90;;;;;;5028314;28;20007;-68
2021/12/10 07:37:04;;;;;;;18.57;11.77;;;1.60;99.90;;;;;;5026367;28;20044;-68
2021/12/10 07:39:30;;;;;;;24.50;12.67;;;1.60;99.90;;;;;;5031246;28;20048;-68
2021/12/10 07:41:56;;;;;;;17.02;10.80;;;1.50;99.90;;;;;;5031736;28;20163;-68
2021/12/10 07:44:22;;;;;;;23.55;12.90;;;1.60;99.90;;;;;;5028052;28;20568;-67
2021/12/10 07:46:50;;;;;;;19.87;11.53;;;1.60;99.90;;;;;;5014575;28;20145;-68
2021/12/10 07:49:17;;;;;;;17.95;11.00;;;1.60;99.90;;;;;;5010531;28;20100;-68
2021/12/10 07:51:49;;;;;;;18.70;11.30;;;1.60;99.90;;;;;;5010553;28;20137;-67
2021/12/10 07:54:15;;;;;;;17.90;10.52;;;1.60;99.90;;;;;;5011826;28;20472;-68
2021/12/10 07:56:41;;;;;;;17.35;10.50;;;1.60;99.90;;;;;;5012063;28;20096;-68
2021/12/10 07:59:07;;;;;;;16.35;10.07;;;1.70;99.90;;;;;;5010201;28;20037;-68
2021/12/10 08:01:33;;;;;;;13.77;9.27;;;1.70;99.90;;;;;;5011699;28;20068;-68
2021/12/10 08:04:00;;;;;;;14.95;9.80;;;1.90;99.90;;;;;;5011684;28;20367;-68
2021/12/10 08:06:28;;;;;;;16.08;10.23;;;2.00;99.90;;;;;;5011991;28;20073;-67
2021/12/10 08:08:54;;;;;;;14.00;9.63;;;2.10;99.90;;;;;;5010166;28;20045;-68
2021/12/10 08:11:20;;;;;;;16.20;9.27;;;2.30;99.90;;;;;;5010414;28;20133;-68
2021/12/10 08:13:46;;;;;;;14.73;9.00;;;2.50;99.90;;;;;;5011320;28;20069;-68
2021/12/10 08:16:12;;;;;;;11.50;8.23;;;2.50;99.90;;;;;;5010303;28;20519;-68
2021/12/10 08:18:38;;;;;;;13.77;8.43;;;2.50;99.90;;;;;;5011364;28;20122;-68
2021/12/10 08:21:04;;;;;;;14.95;9.82;;;2.40;99.90;;;;;;5010123;28;20041;-68
2021/12/10 08:23:30;;;;;;;15.40;8.48;;;2.50;99.90;;;;;;5012063;28;20461;-68
2021/12/10 08:25:56;;;;;;;12.82;8.55;;;2.70;99.90;;;;;;5028773;28;20049;-68
2021/12/10 08:28:25;;;;;;;11.27;7.33;;;2.90;99.90;;;;;;5028818;28;20086;-68
2021/12/10 08:30:52;;;;;;;10.70;8.13;;;3.40;99.90;;;;;;5030968;28;20179;-68
2021/12/10 08:33:18;;;;;;;11.80;8.00;;;4.00;99.90;;;;;;5029837;28;20561;-68
2021/12/10 08:35:51;;;;;;;15.55;7.47;;;4.50;99.90;;;;;;5029451;28;20046;-69
2021/12/10 08:38:17;;;;;;;8.98;5.57;;;5.10;99.90;;;;;;5029934;28;20492;-68
2021/12/10 08:40:55;;;;;;;10.38;6.28;;;5.70;99.90;;;;;;5007321;28;20044;-68
2021/12/10 08:43:21;;;;;;;8.80;5.00;;;6.20;99.90;;;;;;5030126;28;20400;-68
2021/12/10 08:45:47;;;;;;;9.20;5.93;;;6.50;99.90;;;;;;5030754;28;20041;-68
2021/12/10 08:48:13;;;;;;;7.03;4.40;;;6.80;99.90;;;;;;5030059;28;20037;-67
2021/12/10 08:50:41;;;;;;;8.10;5.18;;;7.10;99.90;;;;;;5021833;28;20046;-67
2021/12/10 08:53:12;;;;;;;5.13;4.30;;;7.20;99.90;;;;;;5001486;28;20504;-67
2021/12/10 08:55:41;;;;;;;6.18;5.55;;;7.20;99.90;;;;;;5030385;28;20161;-68
2021/12/10 08:58:07;;;;;;;6.43;5.10;;;7.30;99.60;;;;;;5023475;28;20050;-67
2021/12/10 09:00:33;;;;;;;5.93;4.72;;;7.40;99.90;;;;;;5026539;28;20033;-67
2021/12/10 09:02:59;;;;;;;5.65;5.15;;;7.60;99.50;;;;;;5026266;28;20108;-67
2021/12/10 09:05:27;;;;;;;10.52;4.72;;;7.80;99.10;;;;;;5027559;28;20048;-67
2021/12/10 09:07:53;;;;;;;6.13;4.05;;;8.00;98.70;;;;;;5027322;28;20045;-70
2021/12/10 09:10:21;;;;;;;5.87;4.57;;;8.40;98.60;;;;;;5026946;28;20539;-70
2021/12/10 09:12:47;;;;;;;9.15;4.28;;;8.70;98.10;;;;;;5029222;28;20042;-70
2021/12/10 09:15:18;;;;;;;7.40;4.40;;;9.00;96.90;;;;;;5027719;28;20047;-70
2021/12/10 09:17:44;;;;;;;8.18;4.93;;;9.00;95.50;;;;;;5027770;28;20342;-70
2021/12/10 09:20:19;;;;;;;13.32;4.70;;;9.10;95.70;;;;;;5023262;28;20044;-70
2021/12/10 09:22:45;;;;;;;9.30;4.55;;;9.20;94.70;;;;;;5028977;28;20096;-70
2021/12/10 09:25:12;;;;;;;13.25;4.85;;;9.20;95.00;;;;;;5028414;28;20516;-70
2021/12/10 09:27:39;;;;;;;7.05;4.15;;;9.40;95.30;;;;;;5029278;28;20041;-70
2021/12/10 09:30:07;;;;;;;8.18;5.47;;;9.60;94.70;;;;;;5029333;28;20049;-71
2021/12/10 09:32:33;;;;;;;4.55;4.15;;;9.80;93.50;;;;;;5024367;28;20040;-68
2021/12/10 09:35:03;;;;;;;4.77;4.03;;;10.30;93.70;;;;;;5028454;28;20120;-69
2021/12/10 09:37:29;;;;;;;8.65;4.88;;;10.60;91.30;;;;;;5027525;28;20549;-69
2021/12/10 09:39:55;;;;;;;6.15;4.78;;;10.90;90.30;;;;;;5028868;28;20540;-68
2021/12/10 09:42:22;;;;;;;6.25;3.60;;;11.40;90.40;;;;;;5027402;28;20116;-69
2021/12/10 09:44:55;;;;;;;7.05;3.97;;;11.70;89.00;;;;;;5028869;28;20064;-69
2021/12/10 09:47:21;;;;;;;3.97;3.10;;;11.80;84.10;;;;;;5027427;28;20049;-71
2021/12/10 09:49:51;;;;;;;;;;;11.90;83.50;;;;;;5028539;28;20045;-71
2021/12/10 09:52:21;;;;;;;4.75;3.33;;;11.90;77.10;;;;;;5028116;28;19932;-71
2021/12/10 09:54:47;;;;;;;6.57;3.65;;;11.60;77.40;;;;;;5029092;28;20501;-71
2021/12/10 09:57:16;;;;;;;6.45;3.97;;;11.00;80.50;;;;;;5029291;28;20049;-71
2021/12/10 09:59:45;;;;;;;7.47;3.80;;;10.50;85.70;;;;;;5026442;28;20046;-69
2021/12/10 10:02:12;;;;;;;5.03;3.60;;;10.40;87.70;;;;;;5027636;28;20048;-69
2021/12/10 10:04:43;;;;;;;5.75;3.90;;;10.80;87.40;;;;;;5027083;28;20054;-68
2021/12/10 10:07:14;;;;;;;6.80;3.88;;;11.30;87.70;;;;;;5029193;28;20038;-68
2021/12/10 10:09:43;;;;;;;9.80;3.78;;;11.60;82.40;;;;;;5028449;28;20417;-68
2021/12/10 10:12:18;;;;;;;4.38;3.60;;;11.80;81.80;;;;;;5029068;28;20046;-67
2021/12/10 10:14:44;;;;;;;4.20;3.03;;;11.70;78.20;;;;;;5026656;28;20125;-67
2021/12/10 10:17:12;;;;;;;4.25;3.03;;;11.40;78.60;;;;;;5026499;28;20048;-67
2021/12/10 10:19:39;;;;;;;6.55;3.70;;;10.80;78.40;;;;;;5027969;28;20044;-68
2021/12/10 10:22:08;;;;;;;4.28;3.10;;;10.10;81.80;;;;;;5029957;28;20092;-67
2021/12/10 10:24:34;;;;;;;6.05;4.07;;;9.60;87.40;;;;;;5026329;28;20396;-68
2021/12/10 10:27:16;;;;;;;3.78;3.10;;;9.70;88.70;;;;;;5032505;28;20038;-68
2021/12/10 10:29:50;;;;;;;5.38;3.58;;;10.10;88.10;;;;;;5026255;28;20119;-68
2021/12/10 10:32:19;;;;;;;5.82;4.05;;;10.60;84.00;;;;;;5028380;28;20164;-67
2021/12/10 10:34:49;;;;;;;6.13;3.25;;;10.90;82.90;;;;;;5032448;28;20128;-67
2021/12/10 10:37:15;;;;;;;5.95;4.00;;;11.50;81.40;;;;;;5030894;28;20042;-68
2021/12/10 10:39:43;;;;;;;;;;;11.90;79.50;;;;;;5030889;28;20085;-68
2021/12/10 10:42:12;;;;;;;;;;;12.30;73.90;;;;;;5008130;28;19971;-69
2021/12/10 10:44:38;;;;;;;4.40;2.38;;;12.40;74.40;;;;;;5030556;28;19921;-69
2021/12/10 10:47:04;;;;;;;4.45;2.63;;;12.40;76.00;;;;;;5013742;28;20535;-69
2021/12/10 10:49:49;;;;;;;4.07;2.67;;;12.10;75.10;;;;;;5029905;28;20480;-68
2021/12/10 10:52:30;;;;;;;3.58;2.22;;;11.60;74.00;;;;;;5029418;28;20099;-68
2021/12/10 10:55:16;;;;;;;3.75;2.60;;;11.10;76.30;;;;;;5027655;28;20077;-68
2021/12/10 10:58:17;;;;;;;3.75;2.22;;;10.90;79.50;;;;;;5029072;28;20377;-68
2021/12/10 11:00:58;;;;;;;3.42;2.50;;;10.80;78.20;;;;;;5028877;28;20112;-70
2021/12/10 11:03:39;;;;;;;8.50;3.10;;;11.20;77.90;;;;;;5028195;28;20448;-70
2021/12/10 11:06:11;;;;;;;7.82;3.58;;;11.70;76.80;;;;;;5030709;28;20045;-70
2021/12/10 11:08:42;;;;;;;6.13;2.95;;;12.10;72.00;;;;;;5028580;28;20037;-68
2021/12/10 11:11:34;;;;;;;5.63;3.08;;;12.30;71.00;;;;;;5025948;28;20403;-68
2021/12/10 11:14:14;;;;;;;3.50;2.95;;;12.40;68.90;;;;;;5025485;28;20064;-68
2021/12/10 11:16:42;;;;;;;3.85;2.22;;;12.50;69.80;;;;;;5027632;28;20443;-68
2021/12/10 11:19:24;;;;;;;6.05;2.50;;;12.60;67.50;;;;;;5030331;28;20064;-69
2021/12/10 11:22:14;;;;;;;6.50;2.22;;;12.40;68.20;;;;;;5026503;28;20160;-68
2021/12/10 11:24:46;;;;;;;3.00;1.90;;;12.00;67.50;;;;;;5020773;28;20049;-68
2021/12/10 11:27:19;;;;;;;3.25;2.15;;;12.00;67.70;;;;;;5026385;28;20504;-68
2021/12/10 11:30:04;;;;;;;4.28;2.13;;;12.40;69.20;;;;;;5020690;28;20096;-68
2021/12/10 11:32:36;;;;;;;4.97;2.03;;;12.50;67.80;;;;;;5026364;28;20045;-68
2021/12/10 11:35:08;;;;;;;2.50;1.98;;;12.60;65.40;;;;;;5025755;28;20081;-68
2021/12/10 11:37:42;;;;;;;5.03;2.00;;;13.00;64.80;;;;;;5030255;28;20052;-69
2021/12/10 11:40:25;;;;;;;2.42;1.60;;;13.40;63.60;;;;;;5027489;28;20040;-68
2021/12/10 11:42:57;;;;;;;2.78;1.40;;;13.40;60.50;;;;;;5016854;28;20057;-68
2021/12/10 11:45:32;;;;;;;7.05;1.83;;;13.20;62.70;;;;;;5023316;28;20045;-68
2021/12/10 11:48:14;;;;;;;3.35;1.27;;;13.10;64.00;;;;;;5024915;28;20554;-68
2021/12/10 11:50:46;;;;;;;5.72;2.13;;;13.10;62.70;;;;;;5028090;28;20048;-68
2021/12/10 11:53:17;;;;;;;3.13;1.63;;;13.30;62.10;;;;;;5022834;28;20041;-69
2021/12/10 11:55:59;;;;;;;3.97;1.85;;;13.50;62.40;;;;;;5028778;28;20049;-68
2021/12/10 11:58:25;;;;;;;3.38;1.77;;;13.60;62.40;;;;;;5025355;28;20037;-68
2021/12/10 12:00:51;;;;;;;4.60;2.08;;;13.70;61.80;;;;;;5028701;28;20048;-68
2021/12/10 12:03:17;;;;;;;3.95;1.83;;;13.80;61.90;;;;;;5030278;28;20043;-68
2021/12/10 12:05:45;;;;;;;7.28;2.47;;;13.80;60.50;;;;;;5010690;28;20045;-68
2021/12/10 12:08:14;;;;;;;5.38;2.13;;;13.90;61.10;;;;;;5029526;28;20045;-68
2021/12/10 12:10:43;;;;;;;4.35;1.63;;;13.90;59.80;;;;;;5030451;28;20053;-69
2021/12/10 12:15:45;;;;;;;7.25;1.88;;;14.00;59.80;;;;;;5027989;28;20083;-68
2021/12/10 12:18:27;;;;;;;6.57;2.07;;;14.20;58.10;;;;;;5029565;28;20599;-68
2021/12/10 12:26:49;;;;;;;5.00;1.48;;;14.60;58.20;;;;;;5025517;28;20052;-69
2021/12/10 12:29:16;;;;;;;6.43;1.27;;;14.90;58.70;;;;;;5029282;28;20056;-68
2021/12/10 12:31:53;;;;;;;4.80;2.30;;;15.00;58.00;;;;;;5028985;28;20068;-68
2021/12/10 12:34:26;;;;;;;5.05;2.10;;;14.90;57.20;;;;;;5025926;28;20037;-69
2021/12/10 12:36:51;;;;;;;7.53;2.45;;;14.70;58.20;;;;;;5024436;28;20045;-69
2021/12/10 12:39:38;;;;;;;2.73;1.30;;;14.40;58.90;;;;;;5028177;28;20044;-68
2021/12/10 12:42:16;;;;;;;6.28;1.92;;;14.00;59.20;;;;;;5026837;28;20373;-68
2021/12/10 12:44:42;;;;;;;6.38;1.52;;;13.50;58.90;;;;;;5025057;28;20064;-68
2021/12/10 12:47:10;;;;;;;;;;;13.20;60.50;;;;;;5027321;28;20123;-68
2021/12/10 12:49:47;;;;;;;6.68;2.38;;;13.10;61.10;;;;;;5028537;28;20324;-69
2021/12/10 12:52:16;;;;;;;2.75;1.25;;;13.20;62.00;;;;;;5024376;28;20042;-69
2021/12/10 12:55:04;;;;;;;6.25;1.80;;;13.40;61.90;;;;;;5029598;28;20046;-69
2021/12/10 12:57:41;;;;;;;8.65;1.80;;;13.50;60.60;;;;;;5022386;28;20049;-68
2021/12/10 13:00:14;;;;;;;5.75;2.47;;;13.00;59.90;;;;;;5028482;28;20049;-68
2021/12/10 13:02:39;;;;;;;4.00;1.38;;;12.70;60.90;;;;;;5027130;28;20041;-68
2021/12/10 13:05:09;;;;;;;3.13;1.20;;;12.70;62.30;;;;;;5028412;28;20055;-68
2021/12/10 13:07:36;;;;;;;4.43;1.33;;;12.70;62.90;;;;;;5030258;28;20049;-69
2021/12/10 13:10:05;;;;;;;5.32;1.98;;;12.80;62.70;;;;;;5028268;28;20045;-69
2021/12/10 13:12:43;;;;;;;3.75;1.60;;;12.70;62.80;;;;;;5016205;28;20049;-68